Terminal Aerodrome Forecast
Issued by NWS

Home | Current Version | Previous Version | Text Only | Print | Product List | Glossary On
Versions: 1 2 3 4 5 6 7 8 9 10 11 12 13 14 15 16
000
FTUS45 KRIW 202300
TAFJAC
TAF
KJAC 202326Z 2100/2124 23011G18KT P6SM VCTS SCT050CB BKN090
     FM210200 19009KT P6SM VCSH SCT070 BKN110
     FM210700 VRB06KT P6SM SCT005 BKN150
      TEMPO 2111/2115 3SM BR BKN005
     FM211900 21010G16KT P6SM VCTS SCT050CB BKN090
      AMD LTD TO CLD VIS AND WIND=

USA.gov is the U.S. government's official web portal to all federal, state and local government web resources and services.